CYWG/YWG METAR and TAF weather

Enter ICAO airport designator
Station Type Date Time Source
CYWG METAR 2018/12/10 19:00 UTC NOAA

CYWG 101900Z 31005KT 15SM SKC M07/M11 A2996 RMK SLP164


Station Type Date Time Source
CYWG Decoded METAR 2018/12/10 19:00 UTC NOAA

Winnipeg Int. Airportman., Canada (CYWG) 49-54N 097-14W 239M
Dec 10, 2018 - 02:00 PM EST / 2018.12.10 1900 UTC
Wind: from the NW (310 degrees) at 6 MPH (5 KT):0
Visibility: 15 mile(s):0
Sky conditions: clear
Temperature: 19 F (-7 C)
Windchill: 10 F (-12 C):1
Dew Point: 12 F (-11 C)
Relative Humidity: 73%
Pressure (altimeter): 29.96 in. Hg (1014 hPa)
ob: CYWG 101900Z 31005KT 15SM SKC M07/M11 A2996 RMK SLP164
cycle: 19

Station Type Date Time Source
CYWG TAF 2018/12/10 18:39 UTC NOAA

TAF CYWG 101738Z 1018/1118 30007KT P6SM SKC
BECMG 1100/1102 VRB03KT
FM110800 16005KT P6SM BKN240
FM111400 17010KT P6SM BKN140
RMK NXT FCST BY 110000Z


Example: see airport list